Welcome to Northern Hawkes Bay. New Zealand.
PWS Header
      nz Flag



Hit Counter


W3C Valid W3C Valid logo


    Wairoa

Select any of the Stations below to visit their websites.










Historic Data from Weather Underground
Select the location of interest below. Wairoa is the default. Please have patience, this Data is slow to load in.
Northern Hawkes Bay Historical Data
Daily Summary for February 21, 2017 Units:  English    Metric   Both
« Previous Day
Next Day »
Daily Weekly Monthly Yearly Custom
  High: Low: Average:
Temperature: 75.4 °F 52.5 °F 63 °F
Dew Point: 60.6 °F 52 °F 55.4 °F
Humidity: 99% 50% 78%
Wind Speed: 7.6mph 0mph 2.4mph
Wind Gust: 13.6mph - -
Wind- - SW
Pressure: 30.4 in 30.2 in -
Precipitation: 0 in    
Historical Graphs
 
 
Tabular Data for February 21, 2017
Time Temperature Dew Point Pressure Wind Wind Speed Wind Gust Humidity Rainfall Rate (Hourly) solar
00:03 58.5 °F 56.5 °F 30.4 in Calm   1.6 mph 93% 0 in 0 W/m2
00:08 58.3 °F 56.3 °F 30.4 in North 0.7 mph 1.6 mph 93% 0 in 0 W/m2
00:13 58.3 °F 56.7 °F 30.4 in North 0.7 mph 2.2 mph 94% 0 in 0 W/m2
00:18 58.3 °F 56.7 °F 30.4 in Calm   2.2 mph 94% 0 in 0 W/m2
00:23 57.9 °F 56.1 °F 30.4 in Calm   2.2 mph 94% 0 in 0 W/m2
00:28 57.9 °F 56.5 °F 30.4 in North 0.7 mph 1.6 mph 95% 0 in 0 W/m2
00:33 57.7 °F 56.3 °F 30.4 in NNW 0.7 mph 2.2 mph 95% 0 in 0 W/m2
00:38 57.6 °F 56.1 °F 30.4 in NW 1.6 mph 2.2 mph 95% 0 in 0 W/m2
00:43 57.6 °F 56.1 °F 30.4 in NW 1.6 mph 3.1 mph 95% 0 in 0 W/m2
00:48 57.4 °F 56.3 °F 30.4 in NW 0.7 mph 3.1 mph 96% 0 in 0 W/m2
00:53 57.2 °F 56.1 °F 30.4 in NNW 0.7 mph 3.1 mph 96% 0 in 0 W/m2
00:58 57 °F 56.1 °F 30.4 in North 0.7 mph 2.2 mph 97% 0 in 0 W/m2
01:03 57 °F 56.1 °F 30.4 in North 1.6 mph 3.1 mph 97% 0 in 0 W/m2
01:20 56.7 °F 56.5 °F 30.4 in North 1.6 mph 3.1 mph 99% 0 in 0 W/m2
01:25 56.7 °F 56.5 °F 30.4 in North 1.6 mph 2.2 mph 99% 0 in 0 W/m2
01:30 56.7 °F 56.5 °F 30.4 in North 1.6 mph 3.1 mph 99% 0 in 0 W/m2
01:35 56.5 °F 56.1 °F 30.4 in North 0.7 mph 3.1 mph 99% 0 in 0 W/m2
01:40 56.5 °F 56.1 °F 30.4 in North 0.7 mph 2.2 mph 99% 0 in 0 W/m2
01:45 56.3 °F 55.9 °F 30.4 in Calm   2.2 mph 99% 0 in 0 W/m2
01:50 55.9 °F 55.8 °F 30.4 in North 0.7 mph 1.6 mph 99% 0 in 0 W/m2
01:55 55.9 °F 55.8 °F 30.4 in North 0.7 mph 2.2 mph 99% 0 in 0 W/m2
02:00 55.9 °F 55.8 °F 30.4 in North 2.2 mph 3.1 mph 99% 0 in 0 W/m2
02:05 55.9 °F 55.8 °F 30.4 in North 1.6 mph 3.8 mph 99% 0 in 0 W/m2
02:10 55.8 °F 55.6 °F 30.4 in Calm   3.8 mph 99% 0 in 0 W/m2
02:15 55.6 °F 55.2 °F 30.4 in North 1.6 mph 3.1 mph 99% 0 in 0 W/m2
02:20 55.4 °F 55 °F 30.4 in NNW 1.6 mph 3.1 mph 99% 0 in 0 W/m2
02:25 55.4 °F 55 °F 30.3 in North 0.7 mph 3.1 mph 99% 0 in 0 W/m2
02:30 55.4 °F 55 °F 30.3 in North 1.6 mph 3.1 mph 99% 0 in 0 W/m2
02:35 55.2 °F 54.3 °F 30.3 in North 0.7 mph 3.1 mph 97% 0 in 0 W/m2
02:40 55.2 °F 54.3 °F 30.3 in North 0.7 mph 2.2 mph 97% 0 in 0 W/m2
02:45 55.2 °F 54.3 °F 30.3 in North 0.7 mph 2.2 mph 97% 0 in 0 W/m2
02:50 55.2 °F 54.3 °F 30.3 in North 1.6 mph 3.1 mph 97% 0 in 0 W/m2
02:55 55.2 °F 54.3 °F 30.3 in Calm   3.1 mph 97% 0 in 0 W/m2
03:00 55.2 °F 54.3 °F 30.3 in North 1.6 mph 3.1 mph 97% 0 in 0 W/m2
03:05 55.2 °F 54.3 °F 30.3 in North 1.6 mph 3.8 mph 97% 0 in 0 W/m2
03:10 55.2 °F 54.3 °F 30.3 in NNW 2.2 mph 3.8 mph 97% 0 in 0 W/m2
03:15 55.2 °F 54.3 °F 30.3 in NNW 0.7 mph 3.1 mph 97% 0 in 0 W/m2
03:20 55 °F 54.1 °F 30.3 in NNW 1.6 mph 3.1 mph 97% 0 in 0 W/m2
03:25 55 °F 54.1 °F 30.3 in North 2.2 mph 3.1 mph 97% 0 in 0 W/m2
03:30 54.9 °F 54 °F 30.3 in North 2.2 mph 3.1 mph 97% 0 in 0 W/m2
03:35 54.9 °F 54 °F 30.3 in NNW 1.6 mph 3.1 mph 97% 0 in 0 W/m2
03:40 54.7 °F 54 °F 30.3 in NW 2.2 mph 3.8 mph 97% 0 in 0 W/m2
03:45 54.7 °F 54 °F 30.3 in NNW 1.6 mph 3.8 mph 97% 0 in 0 W/m2
03:50 54.7 °F 54 °F 30.3 in NNW 1.6 mph 3.8 mph 97% 0 in 0 W/m2
03:55 54.7 °F 54 °F 30.3 in NNW 2.2 mph 3.8 mph 97% 0 in 0 W/m2
04:00 54.5 °F 53.8 °F 30.3 in NNW 2.2 mph 3.8 mph 97% 0 in 0 W/m2
04:05 54.5 °F 53.8 °F 30.3 in NNW 2.2 mph 3.8 mph 97% 0 in 0 W/m2
04:10 54.5 °F 53.8 °F 30.3 in NNW 1.6 mph 3.8 mph 97% 0 in 0 W/m2
04:15 54.3 °F 53.4 °F 30.3 in NNW 1.6 mph 3.8 mph 97% 0 in 0 W/m2
04:20 54.3 °F 53.4 °F 30.3 in NW 1.6 mph 3.1 mph 97% 0 in 0 W/m2
04:25 54.3 °F 53.4 °F 30.3 in NW 1.6 mph 3.1 mph 97% 0 in 0 W/m2
04:30 54.1 °F 53.2 °F 30.3 in NW 2.2 mph 3.8 mph 97% 0 in 0 W/m2
04:35 54.1 °F 53.2 °F 30.3 in NNW 1.6 mph 3.8 mph 97% 0 in 0 W/m2
04:40 54.1 °F 53.2 °F 30.3 in NNW 1.6 mph 4.5 mph 97% 0 in 0 W/m2
04:45 54.1 °F 53.2 °F 30.3 in NNW 2.2 mph 4.5 mph 97% 0 in 0 W/m2
04:50 54.1 °F 53.2 °F 30.3 in NNW 1.6 mph 3.8 mph 97% 0 in 0 W/m2
04:55 54 °F 53.1 °F 30.3 in NNW 0.7 mph 3.8 mph 97% 0 in 0 W/m2
05:00 54 °F 53.1 °F 30.3 in NNW 2.2 mph 3.8 mph 97% 0 in 0 W/m2
05:05 54 °F 53.1 °F 30.3 in NNW 2.2 mph 5.4 mph 97% 0 in 0 W/m2
05:08 54 °F 53.1 °F 30.3 in NNW 3.1 mph 5.4 mph 97% 0 in 0 W/m2
05:13 54 °F 53.1 °F 30.3 in NW 2.2 mph 5.4 mph 97% 0 in 0 W/m2
05:18 54 °F 53.1 °F 30.3 in NNW 0.7 mph 4.5 mph 97% 0 in 0 W/m2
05:23 53.8 °F 53.1 °F 30.3 in NNW 1.6 mph 4.5 mph 97% 0 in 0 W/m2
05:28 54 °F 53.1 °F 30.3 in NNW 1.6 mph 3.1 mph 97% 0 in 0 W/m2
05:33 54 °F 53.1 °F 30.3 in NNW 2.2 mph 4.5 mph 97% 0 in 0 W/m2
05:38 54 °F 53.1 °F 30.3 in NNW 1.6 mph 4.5 mph 97% 0 in 0 W/m2
05:43 54 °F 53.1 °F 30.3 in NW 2.2 mph 4.5 mph 97% 0 in 0 W/m2
05:48 54 °F 53.1 °F 30.3 in NW 2.2 mph 3.8 mph 97% 0 in 0 W/m2
05:53 53.8 °F 53.1 °F 30.3 in NW 2.2 mph 3.8 mph 97% 0 in 0 W/m2
05:58 53.6 °F 52.9 °F 30.3 in NNW 1.6 mph 3.8 mph 97% 0 in 0 W/m2
06:03 53.2 °F 52.7 °F 30.3 in NW 2.2 mph 3.8 mph 98% 0 in 0 W/m2
06:08 53.1 °F 52.5 °F 30.3 in NW 1.6 mph 3.8 mph 98% 0 in 0 W/m2
06:13 53.1 °F 52.5 °F 30.3 in NNW 2.2 mph 3.8 mph 98% 0 in 0 W/m2
06:18 52.9 °F 52.3 °F 30.3 in NNW 3.1 mph 4.5 mph 98% 0 in 0 W/m2
06:23 52.9 °F 52.3 °F 30.3 in NW 3.8 mph 5.4 mph 98% 0 in 0 W/m2
06:28 52.7 °F 52.2 °F 30.3 in NNW 3.1 mph 5.4 mph 98% 0 in 0 W/m2
06:33 52.7 °F 52.2 °F 30.3 in NW 3.1 mph 6 mph 98% 0 in 0 W/m2
06:37 52.7 °F 52.2 °F 30.3 in NW 2.2 mph 6 mph 98% 0 in 0 W/m2
06:42 52.7 °F 52.2 °F 30.3 in NNW 2.2 mph 6 mph 98% 0 in 2 W/m2
06:47 52.5 °F 52 °F 30.3 in NNW 1.6 mph 5.4 mph 98% 0 in 4 W/m2
06:52 52.5 °F 52 °F 30.3 in NNW 2.2 mph 4.5 mph 98% 0 in 7 W/m2
06:57 52.5 °F 52 °F 30.3 in NNW 2.2 mph 4.5 mph 98% 0 in 11 W/m2
07:02 52.5 °F 52 °F 30.3 in NNW 3.1 mph 4.5 mph 98% 0 in 13 W/m2
07:07 52.5 °F 52 °F 30.3 in NNW 0.7 mph 4.5 mph 98% 0 in 19 W/m2
07:12 52.7 °F 52.2 °F 30.3 in North 2.2 mph 4.5 mph 98% 0 in 22 W/m2
07:17 52.7 °F 52.2 °F 30.3 in NNW 2.2 mph 4.5 mph 98% 0 in 26 W/m2
07:22 52.7 °F 52.2 °F 30.3 in NNW 4.5 mph 6.9 mph 98% 0 in 55 W/m2
07:27 52.9 °F 52.3 °F 30.3 in North 3.1 mph 6.9 mph 98% 0 in 60 W/m2
07:32 53.2 °F 52.7 °F 30.3 in North 1.6 mph 6 mph 98% 0 in 76 W/m2
07:37 53.6 °F 52.9 °F 30.3 in NNW 3.8 mph 6 mph 97% 0 in 86 W/m2
07:42 53.6 °F 52.9 °F 30.3 in NNW 0.7 mph 6 mph 97% 0 in 86 W/m2
07:47 53.8 °F 53.1 °F 30.3 in NNW 1.6 mph 5.4 mph 97% 0 in 97 W/m2
07:52 54 °F 53.1 °F 30.3 in NNW 2.2 mph 5.4 mph 97% 0 in 92 W/m2
07:57 54.1 °F 53.2 °F 30.3 in NNW 1.6 mph 5.4 mph 97% 0 in 102 W/m2
08:02 54.1 °F 53.2 °F 30.3 in NNW 2.2 mph 6.9 mph 97% 0 in 104 W/m2
08:07 54.5 °F 53.8 °F 30.3 in NNW 2.2 mph 6.9 mph 97% 0 in 126 W/m2
08:12 55 °F 54.1 °F 30.3 in NNW 3.8 mph 5.4 mph 97% 0 in 158 W/m2
08:17 55.2 °F 54.3 °F 30.3 in NNW 3.1 mph 6 mph 97% 0 in 142 W/m2
08:22 55.2 °F 54.3 °F 30.3 in NNW 4.5 mph 7.6 mph 97% 0 in 230 W/m2
08:27 55.8 °F 55.6 °F 30.3 in NNW 3.8 mph 7.6 mph 99% 0 in 180 W/m2
08:32 56.5 °F 56.1 °F 30.3 in NNW 6 mph 7.6 mph 99% 0 in 245 W/m2
08:37 56.7 °F 56.5 °F 30.3 in NW 4.5 mph 7.6 mph 99% 0 in 263 W/m2
08:42 57.2 °F 56.8 °F 30.3 in NNW 6 mph 7.6 mph 99% 0 in 270 W/m2
08:47 57.7 °F 57.6 °F 30.3 in NW 3.1 mph 7.6 mph 99% 0 in 281 W/m2
08:52 58.3 °F 57.9 °F 30.3 in NW 3.8 mph 7.6 mph 99% 0 in 302 W/m2
08:57 59 °F 58.6 °F 30.3 in NW 3.8 mph 6.9 mph 99% 0 in 309 W/m2
09:02 59.5 °F 59.4 °F 30.3 in NW 3.8 mph 6.9 mph 99% 0 in 301 W/m2
09:07 60.1 °F 59.5 °F 30.3 in NNW 4.5 mph 6.9 mph 98% 0 in 299 W/m2
09:12 60.8 °F 59.2 °F 30.3 in North 5.4 mph 7.6 mph 94% 0 in 302 W/m2
09:17 61.3 °F 58.6 °F 30.3 in North 3.8 mph 7.6 mph 91% 0 in 310 W/m2
09:22 61.7 °F 58.1 °F 30.3 in North 5.4 mph 7.6 mph 88% 0 in 322 W/m2
09:39 63.3 °F 58.5 °F 30.3 in NW 3.8 mph 5.4 mph 84% 0 in 370 W/m2
09:45 63.9 °F 59 °F 30.3 in NW 3.1 mph 5.4 mph 84% 0 in 398 W/m2
09:50 64.8 °F 59.5 °F 30.3 in NNW 1.6 mph 6 mph 83% 0 in 416 W/m2
09:55 66.7 °F 60.6 °F 30.3 in NNW 3.1 mph 6 mph 81% 0 in 435 W/m2
10:00 67.6 °F 60.3 °F 30.3 in NNW 1.6 mph 4.5 mph 77% 0 in 447 W/m2
10:05 67.5 °F 59.7 °F 30.3 in NNW 2.2 mph 5.4 mph 76% 0 in 469 W/m2
10:10 67.5 °F 59.7 °F 30.3 in NW 1.6 mph 5.4 mph 76% 0 in 484 W/m2
10:15 68.9 °F 59.9 °F 30.3 in NNW 0.7 mph 5.4 mph 73% 0 in 503 W/m2
10:20 70.2 °F 60.3 °F 30.3 in NW 3.1 mph 4.5 mph 71% 0 in 530 W/m2
10:25 70.7 °F 57 °F 30.3 in WNW 1.6 mph 4.5 mph 62% 0 in 557 W/m2
10:30 70.9 °F 58.1 °F 30.3 in NW 1.6 mph 4.5 mph 64% 0 in 465 W/m2
10:35 72.3 °F 57.7 °F 30.3 in NW 1.6 mph 3.8 mph 60% 0 in 235 W/m2
10:40 71.4 °F 58.3 °F 30.3 in South 4.5 mph 6 mph 63% 0 in 219 W/m2
10:45 68.5 °F 57.9 °F 30.3 in South 4.5 mph 7.6 mph 69% 0 in 177 W/m2
10:50 66.7 °F 58.3 °F 30.3 in South 3.8 mph 7.6 mph 74% 0 in 199 W/m2
10:55 66.6 °F 58.5 °F 30.3 in South 2.2 mph 6 mph 75% 0 in 198 W/m2
11:00 66.7 °F 58.6 °F 30.3 in SSW 2.2 mph 5.4 mph 75% 0 in 267 W/m2
11:05 67.8 °F 58.5 °F 30.3 in SSW 1.6 mph 5.4 mph 72% 0 in 305 W/m2
11:10 68.9 °F 57 °F 30.3 in Calm   4.5 mph 66% 0 in 399 W/m2
11:15 70.3 °F 57.2 °F 30.3 in SSE 2.2 mph 5.4 mph 63% 0 in 372 W/m2
11:20 69.8 °F 57 °F 30.3 in South 3.8 mph 6.9 mph 64% 0 in 387 W/m2
11:25 69.8 °F 57 °F 30.3 in South 3.8 mph 6.9 mph 64% 0 in 323 W/m2
11:30 70.2 °F 56.7 °F 30.3 in South 3.1 mph 6.9 mph 62% 0 in 857 W/m2
11:31 70.3 °F 56.7 °F 30.3 in South 3.8 mph 6.9 mph 62% 0 in 773 W/m2
11:36 70.2 °F 55.2 °F 30.3 in South 5.4 mph 6.9 mph 59% 0 in 367 W/m2
11:41 69.6 °F 55.9 °F 30.3 in South 3.8 mph 6.9 mph 62% 0 in 345 W/m2
11:46 69.6 °F 56.5 °F 30.3 in South 3.8 mph 6.9 mph 63% 0 in 327 W/m2
11:51 68.9 °F 55.4 °F 30.3 in SSW 4.5 mph 6.9 mph 62% 0 in 371 W/m2
11:56 69.3 °F 56.1 °F 30.3 in SSW 4.5 mph 6.9 mph 63% 0 in 364 W/m2
12:01 68.9 °F 55.4 °F 30.3 in SSW 4.5 mph 7.6 mph 62% 0 in 401 W/m2
12:06 69.3 °F 56.1 °F 30.3 in SSW 3.8 mph 7.6 mph 63% 0 in 1072 W/m2
12:11 69.6 °F 56.5 °F 30.3 in SSW 6 mph 7.6 mph 63% 0 in 965 W/m2
12:16 69.8 °F 55.8 °F 30.3 in South 6.9 mph 8.3 mph 61% 0 in 955 W/m2
12:21 70.3 °F 56.7 °F 30.3 in South 6.9 mph 8.3 mph 62% 0 in 950 W/m2
12:26 70.2 °F 56.7 °F 30.3 in South 5.4 mph 8.3 mph 62% 0 in 526 W/m2
12:31 70.7 °F 56.7 °F 30.3 in SSW 3.1 mph 10.7 mph 61% 0 in 704 W/m2
12:36 70.9 °F 55.9 °F 30.3 in SSW 3.1 mph 10.7 mph 59% 0 in 374 W/m2
12:41 70.3 °F 55.8 °F 30.3 in South 1.6 mph 9.2 mph 60% 0 in 477 W/m2
12:46 70.3 °F 54.3 °F 30.3 in South 5.4 mph 8.3 mph 57% 0 in 376 W/m2
12:51 69.8 °F 55.2 °F 30.3 in SSE 3.8 mph 9.2 mph 60% 0 in 345 W/m2
12:56 69.6 °F 55.9 °F 30.3 in South 1.6 mph 9.2 mph 62% 0 in 477 W/m2
13:01 70.3 °F 55.4 °F 30.3 in South 1.6 mph 6.9 mph 59% 0 in 667 W/m2
13:06 70.5 °F 55.6 °F 30.3 in SSE 6 mph 9.8 mph 59% 0 in 666 W/m2
13:11 70.2 °F 56.1 °F 30.3 in South 3.8 mph 9.8 mph 61% 0 in 398 W/m2
13:16 70.7 °F 57.6 °F 30.3 in SSE 4.5 mph 8.3 mph 63% 0 in 1007 W/m2
13:21 71.2 °F 57.9 °F 30.3 in SSE 7.6 mph 9.2 mph 63% 0 in 1018 W/m2
13:26 70.7 °F 57.6 °F 30.3 in SSE 2.2 mph 11.4 mph 63% 0 in 972 W/m2
13:31 72 °F 58.6 °F 30.3 in SSE 3.8 mph 11.4 mph 63% 0 in 965 W/m2
13:36 71.8 °F 57.6 °F 30.3 in SSE 6 mph 10.7 mph 61% 0 in 995 W/m2
13:41 71.1 °F 58.3 °F 30.3 in South 5.4 mph 10.7 mph 64% 0 in 705 W/m2
13:46 71.1 °F 57.4 °F 30.3 in SSE 4.5 mph 11.4 mph 62% 0 in 911 W/m2
13:51 70.3 °F 57.6 °F 30.3 in South 6.9 mph 11.4 mph 64% 0 in 944 W/m2
13:56 70.9 °F 59 °F 30.3 in South 4.5 mph 11.4 mph 66% 0 in 906 W/m2
14:01 71.4 °F 58.3 °F 30.3 in SSE 6 mph 9.2 mph 63% 0 in 904 W/m2
14:06 70.7 °F 57.6 °F 30.3 in SSE 3.8 mph 10.7 mph 63% 0 in 715 W/m2
14:11 71.4 °F 57.4 °F 30.3 in SSE 2.2 mph 10.7 mph 61% 0 in 875 W/m2
14:16 71.2 °F 57.6 °F 30.3 in SE 5.4 mph 9.8 mph 62% 0 in 863 W/m2
14:21 70.9 °F 57.2 °F 30.3 in SE 1.6 mph 9.2 mph 62% 0 in 848 W/m2
14:26 70.7 °F 57 °F 30.3 in SE 0.7 mph 7.6 mph 62% 0 in 838 W/m2
14:31 71.2 °F 57.6 °F 30.3 in SE 2.2 mph 7.6 mph 62% 0 in 827 W/m2
14:36 72 °F 57.7 °F 30.3 in SE 3.1 mph 7.6 mph 61% 0 in 819 W/m2
14:41 72.1 °F 57 °F 30.3 in SSE 0.7 mph 8.3 mph 59% 0 in 796 W/m2
14:46 72.5 °F 56.8 °F 30.3 in SSE 1.6 mph 8.3 mph 58% 0 in 734 W/m2
14:51 72.9 °F 57.4 °F 30.3 in Calm   7.6 mph 58% 0 in 777 W/m2
14:56 72.9 °F 56.3 °F 30.3 in SE 1.6 mph 6.9 mph 56% 0 in 757 W/m2
15:01 72.7 °F 56.1 °F 30.3 in SE 1.6 mph 7.6 mph 56% 0 in 730 W/m2
15:06 72.5 °F 55.4 °F 30.2 in SE 3.1 mph 9.8 mph 55% 0 in 343 W/m2
15:11 73 °F 56.5 °F 30.2 in SSE 0.7 mph 9.8 mph 56% 0 in 720 W/m2
15:16 72.3 °F 56.3 °F 30.2 in SSE 0.7 mph 9.8 mph 57% 0 in 707 W/m2
15:21 73 °F 56.5 °F 30.2 in SSE 0.7 mph 9.8 mph 56% 0 in 513 W/m2
15:26 72.7 °F 54.7 °F 30.2 in SE 2.2 mph 9.8 mph 53% 0 in 677 W/m2
15:31 73.8 °F 56.1 °F 30.2 in SSE 6 mph 9.8 mph 54% 0 in 667 W/m2
15:36 72.9 °F 54.9 °F 30.2 in SE 3.1 mph 10.7 mph 53% 0 in 653 W/m2
15:41 73 °F 54.3 °F 30.2 in SE 5.4 mph 10.7 mph 52% 0 in 103 W/m2
15:46 73 °F 54.9 °F 30.2 in SE 6 mph 11.4 mph 53% 0 in 625 W/m2
15:51 72.9 °F 55.2 °F 30.2 in Calm   11.4 mph 54% 0 in 612 W/m2
15:56 73.2 °F 55.6 °F 30.2 in East 6.9 mph 10.7 mph 54% 0 in 535 W/m2
16:01 73.6 °F 56.5 °F 30.2 in East 3.8 mph 12.1 mph 55% 0 in 584 W/m2
16:06 73.2 °F 55.6 °F 30.2 in SE 1.6 mph 12.1 mph 54% 0 in 550 W/m2
16:11 73.4 °F 55.2 °F 30.2 in SSE 3.8 mph 9.8 mph 53% 0 in 440 W/m2
16:16 73.4 °F 55.2 °F 30.2 in SSE 1.6 mph 9.8 mph 53% 0 in 270 W/m2
16:21 73.9 °F 56.3 °F 30.2 in SE 6 mph 9.2 mph 54% 0 in 120 W/m2
16:26 73.9 °F 56.3 °F 30.2 in SE 3.8 mph 9.2 mph 54% 0 in 177 W/m2
16:31 73.4 °F 55.2 °F 30.2 in SE 2.2 mph 12.1 mph 53% 0 in 508 W/m2
16:36 73.8 °F 56.7 °F 30.2 in ESE 2.2 mph 13 mph 55% 0 in 319 W/m2
16:41 74.1 °F 55.4 °F 30.2 in ESE 5.4 mph 13 mph 52% 0 in 488 W/m2
16:46 73.9 °F 55.8 °F 30.2 in SE 1.6 mph 11.4 mph 53% 0 in 474 W/m2
16:51 74.3 °F 55.6 °F 30.2 in SE 0.7 mph 10.7 mph 52% 0 in 463 W/m2
16:56 74.3 °F 54.5 °F 30.2 in ESE 1.6 mph 8.3 mph 50% 0 in 452 W/m2
17:01 74.7 °F 56.5 °F 30.2 in SE 1.6 mph 9.2 mph 53% 0 in 433 W/m2
17:06 74.7 °F 55.9 °F 30.2 in SE 4.5 mph 9.2 mph 52% 0 in 419 W/m2
17:11 74.3 °F 55.6 °F 30.2 in ESE 3.1 mph 11.4 mph 52% 0 in 408 W/m2
17:16 74.7 °F 56.5 °F 30.2 in ESE 3.1 mph 11.4 mph 53% 0 in 391 W/m2
17:21 74.7 °F 55.9 °F 30.2 in SE 3.8 mph 9.2 mph 52% 0 in 375 W/m2
17:26 75.4 °F 55.6 °F 30.2 in ESE 3.1 mph 10.7 mph 50% 0 in 360 W/m2
17:31 74.7 °F 55.4 °F 30.2 in SE 3.8 mph 10.7 mph 51% 0 in 344 W/m2
17:36 73.2 °F 54.7 °F 30.2 in ESE 3.8 mph 12.1 mph 52% 0 in 333 W/m2
17:41 72.7 °F 54.7 °F 30.2 in ESE 5.4 mph 12.1 mph 53% 0 in 313 W/m2
17:46 72.3 °F 54.3 °F 30.2 in East 5.4 mph 12.1 mph 53% 0 in 308 W/m2
17:51 72.1 °F 54.7 °F 30.2 in East 6.9 mph 13 mph 54% 0 in 284 W/m2
17:56 72 °F 54.3 °F 30.2 in ESE 4.5 mph 13 mph 54% 0 in 270 W/m2
18:01 72.3 °F 54.9 °F 30.2 in ESE 6 mph 13 mph 54% 0 in 257 W/m2
18:06 72.1 °F 54.7 °F 30.2 in ESE 6 mph 11.4 mph 54% 0 in 240 W/m2
18:11 72 °F 54.3 °F 30.2 in ESE 6 mph 13 mph 54% 0 in 227 W/m2
18:16 72.1 °F 54.7 °F 30.2 in ESE 5.4 mph 13 mph 54% 0 in 210 W/m2
18:21 71.6 °F 54.1 °F 30.2 in ESE 5.4 mph 11.4 mph 54% 0 in 197 W/m2
18:26 71.2 °F 54.9 °F 30.2 in SSE 5.4 mph 13.6 mph 56% 0 in 171 W/m2
18:31 70.2 °F 54.7 °F 30.2 in SE 4.5 mph 13.6 mph 58% 0 in 81 W/m2
18:36 69.4 °F 55.9 °F 30.2 in ESE 2.2 mph 12.1 mph 62% 0 in 82 W/m2
18:41 69.1 °F 55.6 °F 30.2 in SE 4.5 mph 10.7 mph 62% 0 in 50 W/m2
18:46 68.7 °F 55.6 °F 30.2 in SE 2.2 mph 10.7 mph 63% 0 in 61 W/m2
18:51 68.9 °F 55.8 °F 30.2 in SE 3.1 mph 10.7 mph 63% 0 in 54 W/m2
18:56 69.1 °F 55.9 °F 30.2 in ESE 3.8 mph 10.7 mph 63% 0 in 67 W/m2
19:01 68.7 °F 55.6 °F 30.2 in ESE 1.6 mph 9.2 mph 63% 0 in 54 W/m2
19:06 68.9 °F 55.8 °F 30.2 in ESE 3.1 mph 9.2 mph 63% 0 in 61 W/m2
19:11 68.7 °F 55.6 °F 30.2 in ESE 3.8 mph 6.9 mph 63% 0 in 62 W/m2
19:16 69.1 °F 55.6 °F 30.2 in East 2.2 mph 8.3 mph 62% 0 in 59 W/m2
19:21 68.5 °F 55.6 °F 30.2 in East 0.7 mph 9.8 mph 63% 0 in 32 W/m2
19:26 67.8 °F 55.6 °F 30.2 in East 4.5 mph 9.8 mph 65% 0 in 33 W/m2
19:31 67.6 °F 55.9 °F 30.2 in East 2.2 mph 9.2 mph 66% 0 in 39 W/m2
19:36 67.3 °F 55.6 °F 30.2 in ESE 3.8 mph 9.2 mph 66% 0 in 23 W/m2
19:41 66.9 °F 55.2 °F 30.2 in ESE 4.5 mph 9.2 mph 66% 0 in 20 W/m2
19:46 66.7 °F 55.6 °F 30.2 in East 3.1 mph 8.3 mph 67% 0 in 15 W/m2
19:51 66.4 °F 55 °F 30.2 in ESE 3.1 mph 8.3 mph 67% 0 in 12 W/m2
19:56 66.2 °F 55.2 °F 30.2 in ESE 3.8 mph 7.6 mph 68% 0 in 8 W/m2
20:01 66 °F 55.6 °F 30.2 in ESE 3.1 mph 7.6 mph 69% 0 in 4 W/m2
20:06 65.8 °F 55.4 °F 30.2 in East 4.5 mph 7.6 mph 69% 0 in 1 W/m2
20:11 65.7 °F 55.6 °F 30.2 in Calm   6 mph 70% 0 in 0 W/m2
20:16 65.5 °F 55.6 °F 30.2 in East 4.5 mph 6.9 mph 70% 0 in 0 W/m2
20:21 65.3 °F 54.9 °F 30.2 in East 2.2 mph 7.6 mph 69% 0 in 0 W/m2
20:26 65.3 °F 54.9 °F 30.2 in East 1.6 mph 7.6 mph 69% 0 in 0 W/m2
20:31 64.9 °F 54.5 °F 30.2 in East 0.7 mph 7.6 mph 69% 0 in 0 W/m2
20:36 64.8 °F 54.3 °F 30.2 in Calm   7.6 mph 69% 0 in 0 W/m2
20:52 63.1 °F 54 °F 30.2 in Calm   1.6 mph 72% 0 in 0 W/m2
20:57 62.6 °F 53.8 °F 30.2 in Calm   0.7 mph 73% 0 in 0 W/m2
21:02 62.2 °F 54.1 °F 30.2 in Calm   0.7 mph 75% 0 in 0 W/m2
21:07 61.9 °F 54 °F 30.2 in Calm   0.7 mph 75% 0 in 0 W/m2
21:12 61.7 °F 54.1 °F 30.2 in NE 1.6 mph 3.8 mph 76% 0 in 0 W/m2
21:17 61.5 °F 54.3 °F 30.2 in NE 0.7 mph 4.5 mph 77% 0 in 0 W/m2
21:22 61.7 °F 54.3 °F 30.2 in NE 1.6 mph 4.5 mph 77% 0 in 0 W/m2
21:27 61.7 °F 54.3 °F 30.2 in NE 2.2 mph 3.8 mph 77% 0 in 0 W/m2
21:32 61.7 °F 54.3 °F 30.2 in NE 0.7 mph 3.8 mph 77% 0 in 0 W/m2
21:37 61.5 °F 54.3 °F 30.2 in Calm   3.1 mph 77% 0 in 0 W/m2
21:42 61.2 °F 54 °F 30.2 in Calm   3.1 mph 77% 0 in 0 W/m2
21:47 60.8 °F 53.6 °F 30.2 in Calm   1.6 mph 77% 0 in 0 W/m2
21:52 60.6 °F 53.8 °F 30.2 in Calm     78% 0 in 0 W/m2
21:57 60.4 °F 54 °F 30.2 in Calm     79% 0 in 0 W/m2
22:02 60.3 °F 54.1 °F 30.2 in Calm     80% 0 in 0 W/m2
22:07 59.9 °F 53.8 °F 30.2 in Calm     80% 0 in 0 W/m2
22:12 59.9 °F 54.3 °F 30.2 in Calm     82% 0 in 0 W/m2
22:29 59.2 °F 54 °F 30.2 in Calm     83% 0 in 0 W/m2
22:34 59.2 °F 54.3 °F 30.2 in Calm     84% 0 in 0 W/m2
22:40 59.4 °F 54.9 °F 30.2 in Calm     85% 0 in 0 W/m2
22:45 59.2 °F 54.7 °F 30.2 in Calm     85% 0 in 0 W/m2
22:50 59 °F 54.5 °F 30.2 in Calm     85% 0 in 0 W/m2
22:55 58.6 °F 54.5 °F 30.2 in Calm     86% 0 in 0 W/m2
23:00 58.5 °F 54.3 °F 30.2 in Calm     86% 0 in 0 W/m2
23:05 58.1 °F 54 °F 30.2 in Calm     86% 0 in 0 W/m2
23:10 57.9 °F 53.8 °F 30.2 in Calm     86% 0 in 0 W/m2
23:15 57.9 °F 54.1 °F 30.2 in Calm     87% 0 in 0 W/m2
23:20 57.7 °F 54.1 °F 30.2 in Calm     88% 0 in 0 W/m2
23:25 57.6 °F 54 °F 30.2 in Calm     88% 0 in 0 W/m2
23:30 57.2 °F 53.8 °F 30.2 in Calm     88% 0 in 0 W/m2
23:35 57.2 °F 54 °F 30.2 in Calm     89% 0 in 0 W/m2
23:40 57.2 °F 54 °F 30.2 in Calm     89% 0 in 0 W/m2
23:45 57 °F 54.3 °F 30.2 in Calm     91% 0 in 0 W/m2
23:50 57 °F 54.7 °F 30.2 in Calm     92% 0 in 0 W/m2
23:55 56.8 °F 54.7 °F 30.2 in Calm     92% 0 in 0 W/m2
Northern Hawkes Bay. New Zealand Historic Data
Compliments of Weather Underground - 2 mb